createdAt,value
2023-12-16T00:01:29.289Z,3.97
2023-12-16T00:04:32.270Z,3.87
2023-12-16T00:07:35.614Z,4.30
2023-12-16T00:10:38.663Z,4.22
2023-12-16T00:13:41.342Z,3.53
2023-12-16T00:16:47.272Z,4.62
2023-12-16T00:19:49.847Z,4.22
2023-12-16T00:22:52.606Z,4.05
2023-12-16T00:25:55.072Z,3.33
2023-12-16T00:28:57.856Z,3.65
2023-12-16T00:32:00.402Z,3.60
2023-12-16T00:35:03.794Z,4.22
2023-12-16T00:38:06.246Z,4.37
2023-12-16T00:41:09.063Z,4.00
2023-12-16T00:44:11.464Z,4.05
2023-12-16T00:47:14.140Z,3.42
2023-12-16T00:50:16.526Z,4.10
2023-12-16T00:53:19.197Z,4.43
2023-12-16T00:56:24.145Z,4.03
2023-12-16T00:59:27.497Z,3.35
2023-12-16T01:02:29.905Z,4.25
2023-12-16T01:05:32.701Z,3.62
2023-12-16T01:08:35.203Z,4.03
2023-12-16T01:11:38.045Z,3.92
2023-12-16T01:14:40.452Z,4.53
2023-12-16T01:17:43.622Z,4.25
2023-12-16T01:20:46.318Z,3.72
2023-12-16T01:23:49.120Z,3.62
2023-12-16T01:26:51.627Z,4.18
2023-12-16T01:29:54.393Z,3.93
2023-12-16T01:32:57.000Z,4.20
2023-12-16T01:35:59.978Z,3.87
2023-12-16T01:39:02.503Z,3.75
2023-12-16T01:42:05.494Z,3.60
2023-12-16T01:45:08.702Z,3.65
2023-12-16T01:48:13.892Z,4.03
2023-12-16T01:51:17.439Z,4.37
2023-12-16T01:54:21.818Z,3.20
2023-12-16T01:57:24.623Z,3.70
2023-12-16T02:00:29.939Z,3.75
2023-12-16T02:03:33.694Z,3.80
2023-12-16T02:06:36.349Z,4.40
2023-12-16T02:09:39.163Z,4.37
2023-12-16T02:12:41.545Z,4.22
2023-12-16T02:15:44.304Z,4.13
2023-12-16T02:18:46.919Z,4.93
2023-12-16T02:21:49.679Z,4.57
2023-12-16T02:24:53.570Z,4.60
2023-12-16T02:27:56.385Z,4.50
2023-12-16T02:30:58.942Z,4.90
2023-12-16T02:34:01.790Z,4.47
2023-12-16T02:37:07.460Z,4.18
2023-12-16T02:40:10.713Z,4.10
2023-12-16T02:43:13.299Z,4.20
2023-12-16T02:46:16.079Z,3.90
2023-12-16T02:49:18.557Z,3.10
2023-12-16T02:52:21.432Z,4.03
2023-12-16T02:55:24.189Z,4.50
2023-12-16T02:58:27.136Z,4.18
2023-12-16T03:01:29.883Z,4.72
2023-12-16T03:04:33.057Z,4.25
2023-12-16T03:07:35.721Z,4.60
2023-12-16T03:10:38.698Z,4.10
2023-12-16T03:13:41.293Z,4.68
2023-12-16T03:16:44.318Z,4.87
2023-12-16T03:19:46.967Z,5.20
2023-12-16T03:22:50.118Z,4.78
2023-12-16T03:25:52.649Z,5.03
2023-12-16T03:28:55.373Z,5.20
2023-12-16T03:31:58.252Z,5.78
2023-12-16T03:35:00.893Z,5.87
2023-12-16T03:38:04.233Z,5.78
2023-12-16T03:41:07.255Z,5.80
2023-12-16T03:44:09.754Z,5.65
2023-12-16T03:47:12.528Z,6.18
2023-12-16T03:50:14.904Z,6.10
2023-12-16T03:53:17.570Z,6.40
2023-12-16T03:56:19.965Z,6.05
2023-12-16T03:59:22.698Z,5.80
2023-12-16T04:02:25.263Z,6.30
2023-12-16T04:05:28.058Z,6.20
2023-12-16T04:08:30.512Z,6.37
2023-12-16T04:11:33.456Z,6.15
2023-12-16T04:14:40.171Z,6.53
2023-12-16T04:17:43.196Z,5.83
2023-12-16T04:20:45.870Z,6.57
2023-12-16T04:23:48.778Z,7.25
2023-12-16T04:26:51.348Z,6.62
2023-12-16T04:29:54.442Z,7.37
2023-12-16T04:32:56.969Z,7.12
2023-12-16T04:35:59.852Z,6.97
2023-12-16T04:39:02.438Z,6.00
2023-12-16T04:42:05.331Z,6.87
2023-12-16T04:45:08.254Z,6.97
2023-12-16T04:48:11.189Z,6.28
2023-12-16T04:51:13.637Z,6.45
2023-12-16T04:54:17.801Z,6.65
2023-12-16T04:57:20.216Z,7.18
2023-12-16T05:00:22.926Z,6.65
2023-12-16T05:03:25.399Z,6.93
2023-12-16T05:06:28.109Z,7.80
2023-12-16T05:09:30.550Z,7.05
2023-12-16T05:12:35.862Z,6.95
2023-12-16T05:15:39.848Z,7.00
2023-12-16T05:18:42.671Z,7.37
2023-12-16T05:21:45.145Z,7.35
2023-12-16T05:24:49.570Z,6.57
2023-12-16T05:27:52.068Z,8.27
2023-12-16T05:30:54.845Z,8.02
2023-12-16T05:33:57.493Z,7.45
2023-12-16T05:37:00.443Z,7.25
2023-12-16T05:40:03.832Z,7.10
2023-12-16T05:43:07.015Z,7.72
2023-12-16T05:46:09.621Z,7.85
2023-12-16T05:49:12.491Z,7.25
2023-12-16T05:52:15.628Z,7.25
2023-12-16T05:55:18.482Z,8.18
2023-12-16T05:58:22.207Z,7.43
2023-12-16T06:01:25.232Z,7.47
2023-12-16T06:04:28.289Z,7.75
2023-12-16T06:07:31.567Z,7.82
2023-12-16T06:10:34.334Z,8.30
2023-12-16T06:13:36.832Z,8.33
2023-12-16T06:16:39.653Z,7.62
2023-12-16T06:19:42.170Z,7.70
2023-12-16T06:22:44.934Z,5.97
2023-12-16T06:25:47.330Z,6.72
2023-12-16T06:28:50.000Z,7.97
2023-12-16T06:31:52.400Z,7.35
2023-12-16T06:34:55.136Z,7.50
2023-12-16T06:37:57.572Z,8.35
2023-12-16T06:41:00.218Z,7.90
2023-12-16T06:44:02.760Z,8.38
2023-12-16T06:47:05.423Z,7.55
2023-12-16T06:50:09.568Z,8.32
2023-12-16T06:53:12.954Z,8.93
2023-12-16T06:56:15.763Z,12.17
2023-12-16T06:59:18.745Z,11.05
2023-12-16T07:02:21.683Z,11.15
2023-12-16T07:05:24.479Z,14.73
2023-12-16T07:08:27.156Z,12.43
2023-12-16T07:11:29.956Z,15.17
2023-12-16T07:14:34.863Z,14.38
2023-12-16T07:17:38.245Z,13.93
2023-12-16T07:20:41.449Z,15.80
2023-12-16T07:23:44.438Z,14.60
2023-12-16T07:26:47.052Z,14.60
2023-12-16T07:29:51.949Z,14.38
2023-12-16T07:32:54.705Z,13.70
2023-12-16T07:35:57.944Z,14.43
2023-12-16T07:39:00.590Z,14.50
2023-12-16T07:42:04.436Z,14.87
2023-12-16T07:45:08.381Z,14.65
2023-12-16T07:48:11.678Z,13.68
2023-12-16T07:51:18.753Z,15.50
2023-12-16T07:54:23.706Z,12.65
2023-12-16T07:57:26.074Z,12.23
2023-12-16T08:00:28.869Z,10.43
2023-12-16T08:03:31.598Z,9.23
2023-12-16T08:06:34.460Z,9.18
2023-12-16T08:09:37.508Z,8.45
2023-12-16T08:12:39.877Z,7.97
2023-12-16T08:15:42.615Z,6.53
2023-12-16T08:18:45.026Z,6.47
2023-12-16T08:21:47.703Z,6.10
2023-12-16T08:24:50.176Z,6.22
2023-12-16T08:27:52.948Z,6.20
2023-12-16T08:30:55.709Z,5.85
2023-12-16T08:33:58.707Z,5.53
2023-12-16T08:37:01.483Z,4.87
2023-12-16T08:40:05.566Z,4.72
2023-12-16T08:43:08.724Z,5.33
2023-12-16T08:46:13.234Z,5.05
2023-12-16T08:49:16.258Z,5.05
2023-12-16T08:52:19.132Z,4.55
2023-12-16T08:55:23.364Z,4.93
2023-12-16T08:58:26.181Z,4.77
2023-12-16T09:01:28.823Z,4.25
2023-12-16T09:04:31.724Z,5.05
2023-12-16T09:07:35.201Z,4.50
2023-12-16T09:10:38.054Z,4.65
2023-12-16T09:13:40.715Z,4.53
2023-12-16T09:16:44.258Z,5.18
2023-12-16T09:19:46.769Z,4.25
2023-12-16T09:22:49.460Z,3.47
2023-12-16T09:25:51.864Z,3.55
2023-12-16T09:28:54.820Z,3.43
2023-12-16T09:31:57.310Z,3.58
2023-12-16T09:34:59.998Z,3.85
2023-12-16T09:38:02.721Z,3.60
2023-12-16T09:41:05.903Z,3.40
2023-12-16T09:44:09.628Z,3.20
2023-12-16T09:47:14.041Z,3.60
2023-12-16T09:50:16.723Z,3.65
2023-12-16T09:53:19.389Z,3.60
2023-12-16T09:56:22.602Z,3.00
2023-12-16T09:59:27.572Z,3.23
2023-12-16T10:02:30.265Z,3.12
2023-12-16T10:05:35.393Z,2.80
2023-12-16T10:08:39.911Z,3.00
2023-12-16T10:11:42.965Z,2.53
2023-12-16T10:14:49.954Z,2.53
2023-12-16T10:17:53.387Z,2.37
2023-12-16T10:20:59.272Z,2.87
2023-12-16T10:24:03.822Z,2.50
2023-12-16T10:27:08.559Z,2.90
2023-12-16T10:30:12.938Z,1.93
2023-12-16T10:33:15.967Z,2.25
2023-12-16T10:36:19.334Z,2.60
2023-12-16T10:39:21.812Z,2.30
2023-12-16T10:42:25.337Z,2.35
2023-12-16T10:45:27.819Z,2.67
2023-12-16T10:48:33.966Z,2.30
2023-12-16T10:51:42.008Z,2.35
2023-12-16T10:54:48.334Z,2.20
2023-12-16T10:58:08.628Z,4.70
2023-12-16T11:01:17.835Z,7.97
2023-12-16T11:04:25.692Z,8.32
2023-12-16T11:07:30.416Z,8.88
2023-12-16T11:10:33.616Z,8.82
2023-12-16T11:13:36.831Z,9.35
2023-12-16T11:16:53.379Z,9.43
2023-12-16T11:20:15.063Z,10.40
2023-12-16T11:23:18.176Z,9.88
2023-12-16T11:26:21.209Z,10.20
2023-12-16T11:29:24.756Z,10.13
2023-12-16T11:32:28.541Z,9.97
2023-12-16T11:35:37.293Z,10.55
2023-12-16T11:38:45.673Z,8.60
2023-12-16T11:41:50.334Z,7.40
2023-12-16T11:44:54.833Z,8.23
2023-12-16T11:47:58.424Z,7.97
2023-12-16T11:51:01.573Z,7.40
2023-12-16T11:54:07.433Z,7.10
2023-12-16T11:57:10.342Z,7.72
2023-12-16T12:00:13.238Z,8.05
2023-12-16T12:03:16.044Z,7.93
2023-12-16T12:06:19.811Z,7.65
2023-12-16T12:09:22.544Z,7.45
2023-12-16T12:12:24.891Z,8.40
2023-12-16T12:15:27.518Z,6.95
2023-12-16T12:18:30.184Z,6.60
2023-12-16T12:21:36.420Z,6.18
2023-12-16T12:24:38.878Z,6.50
2023-12-16T12:27:42.052Z,6.03
2023-12-16T12:30:44.643Z,6.35
2023-12-16T12:33:50.867Z,5.73
2023-12-16T12:36:57.366Z,5.43
2023-12-16T12:40:00.390Z,4.47
2023-12-16T12:43:03.049Z,4.20
2023-12-16T12:46:11.874Z,4.62
2023-12-16T12:49:15.328Z,5.10
2023-12-16T12:52:18.603Z,5.30
2023-12-16T12:55:21.183Z,4.53
2023-12-16T12:58:29.189Z,4.72
2023-12-16T13:01:33.490Z,5.12
2023-12-16T13:04:47.075Z,5.03
2023-12-16T13:07:50.481Z,3.97
2023-12-16T13:10:53.633Z,5.03
2023-12-16T13:13:56.181Z,4.57
2023-12-16T13:16:59.807Z,5.05
2023-12-16T13:20:02.458Z,4.50
2023-12-16T13:23:05.523Z,4.60
2023-12-16T13:26:12.019Z,5.43
2023-12-16T13:29:14.803Z,4.37
2023-12-16T13:32:17.263Z,4.80
2023-12-16T13:35:20.294Z,5.00
2023-12-16T13:38:22.694Z,4.93
2023-12-16T13:41:25.508Z,5.28
2023-12-16T13:44:28.177Z,6.15
2023-12-16T13:47:31.079Z,8.43
2023-12-16T13:50:33.562Z,7.60
2023-12-16T13:53:36.252Z,11.85
2023-12-16T13:56:38.861Z,9.30
2023-12-16T13:59:42.340Z,8.30
2023-12-16T14:02:44.826Z,7.40
2023-12-16T14:05:47.672Z,6.70
2023-12-16T14:08:50.226Z,6.60
2023-12-16T14:11:52.950Z,6.12
2023-12-16T14:14:55.480Z,6.20
2023-12-16T14:17:58.338Z,5.28
2023-12-16T14:21:00.879Z,6.80
2023-12-16T14:24:04.197Z,5.97
2023-12-16T14:27:06.840Z,6.03
2023-12-16T14:30:10.031Z,5.00
2023-12-16T14:33:12.903Z,5.43
2023-12-16T14:36:15.896Z,5.60
2023-12-16T14:39:18.438Z,5.50
2023-12-16T14:42:21.609Z,5.87
2023-12-16T14:45:24.236Z,5.28
2023-12-16T14:48:27.122Z,5.15
2023-12-16T14:51:36.729Z,6.20
2023-12-16T14:54:39.444Z,5.65
2023-12-16T14:57:42.025Z,5.40
2023-12-16T15:00:45.554Z,4.80
2023-12-16T15:03:48.811Z,5.28
2023-12-16T15:06:53.948Z,5.00
2023-12-16T15:09:56.622Z,5.10
2023-12-16T15:13:07.185Z,5.12
2023-12-16T15:16:12.049Z,5.12
2023-12-16T15:19:15.396Z,5.07
2023-12-16T15:22:17.936Z,5.23
2023-12-16T15:25:21.205Z,5.37
2023-12-16T15:28:23.652Z,5.55
2023-12-16T15:31:26.538Z,5.45
2023-12-16T15:34:30.229Z,5.30
2023-12-16T15:37:33.095Z,5.37
2023-12-16T15:40:35.495Z,5.50
2023-12-16T15:43:38.584Z,5.37
2023-12-16T15:46:44.143Z,5.20
2023-12-16T15:49:47.067Z,5.43
2023-12-16T15:52:49.571Z,6.00
2023-12-16T15:55:52.218Z,5.78
2023-12-16T15:58:54.634Z,6.28
2023-12-16T16:01:57.295Z,5.78
2023-12-16T16:05:00.018Z,5.97
2023-12-16T16:08:04.807Z,5.83
2023-12-16T16:11:08.088Z,6.45
2023-12-16T16:14:10.645Z,6.62
2023-12-16T16:17:14.419Z,6.47
2023-12-16T16:20:18.107Z,6.40
2023-12-16T16:23:20.970Z,5.63
2023-12-16T16:26:25.566Z,5.57
2023-12-16T16:29:28.340Z,6.37
2023-12-16T16:32:30.970Z,6.20
2023-12-16T16:35:33.992Z,6.87
2023-12-16T16:38:36.976Z,5.70
2023-12-16T16:41:40.118Z,7.32
2023-12-16T16:44:42.713Z,6.72
2023-12-16T16:47:45.897Z,6.35
2023-12-16T16:50:50.039Z,7.00
2023-12-16T16:53:52.900Z,7.22
2023-12-16T16:56:55.675Z,6.00
2023-12-16T17:00:02.474Z,7.18
2023-12-16T17:03:05.530Z,6.75
2023-12-16T17:06:08.385Z,6.87
2023-12-16T17:09:11.604Z,6.47
2023-12-16T17:12:14.505Z,6.40
2023-12-16T17:15:17.233Z,7.18
2023-12-16T17:18:20.175Z,8.15
2023-12-16T17:21:22.617Z,7.93
2023-12-16T17:24:25.257Z,8.32
2023-12-16T17:27:27.733Z,8.40
2023-12-16T17:30:30.562Z,7.93
2023-12-16T17:33:33.265Z,8.43
2023-12-16T17:36:36.852Z,7.68
2023-12-16T17:39:40.033Z,7.43
2023-12-16T17:42:42.936Z,7.78
2023-12-16T17:45:48.211Z,8.32
2023-12-16T17:48:51.212Z,7.75
2023-12-16T17:51:54.411Z,9.05
2023-12-16T17:54:57.276Z,9.60
2023-12-16T17:57:59.714Z,8.85
2023-12-16T18:01:02.457Z,9.07
2023-12-16T18:04:05.358Z,10.68
2023-12-16T18:07:07.856Z,10.57
2023-12-16T18:10:10.906Z,9.63
2023-12-16T18:13:13.602Z,11.03
2023-12-16T18:16:16.374Z,10.68
2023-12-16T18:19:18.839Z,12.02
2023-12-16T18:22:21.601Z,12.13
2023-12-16T18:25:25.243Z,11.77
2023-12-16T18:28:27.934Z,10.90
2023-12-16T18:31:30.362Z,10.95
2023-12-16T18:34:33.650Z,11.88
2023-12-16T18:37:42.166Z,10.48
2023-12-16T18:40:45.094Z,11.07
2023-12-16T18:43:50.595Z,10.93
2023-12-16T18:46:53.232Z,10.65
2023-12-16T18:49:56.242Z,10.88
2023-12-16T18:52:58.994Z,11.65
2023-12-16T18:56:01.878Z,10.53
2023-12-16T18:59:04.639Z,11.48
2023-12-16T19:02:07.053Z,11.15
2023-12-16T19:05:09.818Z,11.45
2023-12-16T19:08:12.525Z,11.00
2023-12-16T19:11:15.490Z,10.13
2023-12-16T19:14:18.019Z,10.00
2023-12-16T19:17:20.850Z,11.52
2023-12-16T19:20:23.348Z,9.32
2023-12-16T19:23:27.633Z,10.32
2023-12-16T19:26:30.173Z,10.32
2023-12-16T19:29:33.348Z,10.65
2023-12-16T19:32:36.877Z,10.67
2023-12-16T19:35:40.064Z,10.57
2023-12-16T19:38:42.661Z,10.95
2023-12-16T19:41:45.477Z,10.95
2023-12-16T19:44:48.063Z,11.13
2023-12-16T19:47:50.952Z,9.95
2023-12-16T19:50:53.394Z,11.65
2023-12-16T19:53:56.134Z,11.15
2023-12-16T19:56:58.557Z,10.20
2023-12-16T20:00:01.303Z,11.32
2023-12-16T20:03:05.098Z,10.25
2023-12-16T20:06:08.167Z,11.05
2023-12-16T20:09:11.276Z,10.90
2023-12-16T20:12:14.311Z,11.80
2023-12-16T20:15:17.476Z,13.18
2023-12-16T20:18:21.749Z,12.35
2023-12-16T20:21:24.251Z,11.53
2023-12-16T20:24:27.136Z,11.45
2023-12-16T20:27:29.761Z,12.55
2023-12-16T20:30:32.933Z,11.38
2023-12-16T20:33:36.551Z,11.40
2023-12-16T20:36:40.141Z,12.30
2023-12-16T20:40:01.267Z,12.13
2023-12-16T20:43:05.516Z,11.80
2023-12-16T20:46:07.884Z,11.77
2023-12-16T20:49:10.822Z,10.55
2023-12-16T20:52:13.338Z,11.68
2023-12-16T20:55:16.786Z,11.20
2023-12-16T20:58:19.870Z,11.63
2023-12-16T21:01:22.646Z,10.93
2023-12-16T21:04:25.311Z,12.13
2023-12-16T21:07:28.165Z,11.85
2023-12-16T21:10:30.828Z,11.03
2023-12-16T21:13:33.740Z,10.93
2023-12-16T21:16:37.329Z,11.50
2023-12-16T21:19:40.426Z,11.48
2023-12-16T21:22:43.106Z,11.53
2023-12-16T21:25:46.280Z,10.90
2023-12-16T21:28:48.833Z,11.27
2023-12-16T21:31:51.610Z,12.20
2023-12-16T21:34:54.279Z,11.77
2023-12-16T21:37:57.122Z,13.02
2023-12-16T21:40:59.469Z,12.18
2023-12-16T21:44:02.210Z,12.47
2023-12-16T21:47:04.747Z,11.57
2023-12-16T21:50:07.819Z,12.55
2023-12-16T21:53:10.238Z,11.88
2023-12-16T21:56:12.926Z,12.07
2023-12-16T21:59:16.008Z,11.57
2023-12-16T22:02:18.887Z,11.43
2023-12-16T22:05:21.970Z,10.60
2023-12-16T22:08:24.474Z,11.90
2023-12-16T22:11:27.202Z,11.40
2023-12-16T22:14:29.621Z,10.77
2023-12-16T22:17:32.585Z,11.48
2023-12-16T22:20:35.130Z,12.50
2023-12-16T22:23:38.812Z,11.52
2023-12-16T22:26:41.585Z,11.60
2023-12-16T22:29:44.671Z,13.07
2023-12-16T22:32:47.192Z,13.17
2023-12-16T22:35:50.055Z,11.82
2023-12-16T22:38:52.553Z,11.63
2023-12-16T22:41:55.335Z,12.02
2023-12-16T22:44:58.199Z,12.00
2023-12-16T22:48:01.052Z,11.18
2023-12-16T22:51:04.049Z,12.55
2023-12-16T22:54:06.839Z,10.95
2023-12-16T22:57:09.270Z,11.80
2023-12-16T23:00:31.893Z,10.85
2023-12-16T23:03:34.748Z,11.18
2023-12-16T23:06:37.562Z,11.07
2023-12-16T23:09:40.087Z,10.87
2023-12-16T23:12:43.281Z,10.05
2023-12-16T23:15:45.700Z,10.30
2023-12-16T23:18:48.462Z,10.80
2023-12-16T23:21:51.824Z,10.20
2023-12-16T23:24:54.664Z,9.38
2023-12-16T23:27:57.045Z,10.32
2023-12-16T23:31:07.373Z,9.52
2023-12-16T23:34:14.034Z,9.63
2023-12-16T23:37:16.738Z,9.27
2023-12-16T23:40:19.172Z,10.25
2023-12-16T23:43:21.850Z,9.60
2023-12-16T23:46:24.460Z,8.77
2023-12-16T23:49:27.267Z,9.63
2023-12-16T23:52:29.801Z,8.80
2023-12-16T23:55:32.447Z,9.40
2023-12-16T23:58:35.179Z,8.40
